createdAt,value
2022-07-30T00:01:06.942Z,96329.00
2022-07-30T00:05:11.107Z,96329.00
2022-07-30T00:09:14.228Z,96328.00
2022-07-30T00:13:19.047Z,96319.00
2022-07-30T00:17:22.132Z,96323.00
2022-07-30T00:21:35.724Z,96325.00
2022-07-30T00:25:39.926Z,96317.00
2022-07-30T00:29:44.994Z,96309.00
2022-07-30T00:33:48.269Z,96322.00
2022-07-30T00:37:51.591Z,96314.00
2022-07-30T00:41:56.826Z,96296.00
2022-07-30T00:46:01.507Z,96307.00
2022-07-30T00:50:05.624Z,96316.00
2022-07-30T00:54:08.764Z,96311.00
2022-07-30T00:58:11.940Z,96315.00
2022-07-30T01:02:16.817Z,96304.00
2022-07-30T01:06:20.104Z,96301.00
2022-07-30T01:10:23.306Z,96303.00
2022-07-30T01:14:26.420Z,96300.00
2022-07-30T01:18:47.230Z,96294.00
2022-07-30T01:22:59.053Z,96298.00
2022-07-30T01:27:04.014Z,96302.00
2022-07-30T01:31:10.366Z,96307.00
2022-07-30T01:35:15.478Z,96309.00
2022-07-30T01:39:20.700Z,96301.00
2022-07-30T01:43:27.026Z,96303.00
2022-07-30T01:47:31.878Z,96308.00
2022-07-30T01:51:37.486Z,96307.00
2022-07-30T01:55:42.295Z,96306.00
2022-07-30T01:59:52.046Z,96302.00
2022-07-30T02:03:55.319Z,96299.00
2022-07-30T02:08:07.492Z,96306.00
2022-07-30T02:12:30.766Z,96298.00
2022-07-30T02:16:39.256Z,96298.00
2022-07-30T02:20:49.412Z,96303.00
2022-07-30T02:24:53.585Z,96307.00
2022-07-30T02:28:59.493Z,96305.00
2022-07-30T02:33:08.443Z,96304.00
2022-07-30T02:37:14.623Z,96297.00
2022-07-30T02:41:19.142Z,96295.00
2022-07-30T02:45:25.150Z,96288.00
2022-07-30T02:49:32.587Z,96285.00
2022-07-30T02:53:37.987Z,96294.00
2022-07-30T02:57:44.083Z,96290.00
2022-07-30T03:01:49.029Z,96289.00
2022-07-30T03:05:54.269Z,96295.00
2022-07-30T03:09:58.519Z,96292.00
2022-07-30T03:14:03.397Z,96292.00
2022-07-30T03:18:07.971Z,96293.00
2022-07-30T03:22:13.986Z,96296.00
2022-07-30T03:26:21.180Z,96287.00
2022-07-30T03:30:25.614Z,96287.00
2022-07-30T03:34:29.599Z,96292.00
2022-07-30T03:38:35.275Z,96289.00
2022-07-30T03:42:39.061Z,96294.00
2022-07-30T03:46:43.414Z,96301.00
2022-07-30T03:50:47.728Z,96300.00
2022-07-30T03:54:53.189Z,96301.00
2022-07-30T03:58:56.560Z,96308.00
2022-07-30T04:02:59.702Z,96308.00
2022-07-30T04:07:03.279Z,96324.00
2022-07-30T04:11:08.119Z,96314.00
2022-07-30T04:16:04.958Z,96313.00
2022-07-30T04:19:39.837Z,96310.00
2022-07-30T04:24:02.357Z,96319.00
2022-07-30T04:28:11.208Z,96329.00
2022-07-30T04:32:14.618Z,96329.00
2022-07-30T04:36:17.821Z,96329.00
2022-07-30T04:40:20.997Z,96335.00
2022-07-30T04:44:25.718Z,96338.00
2022-07-30T04:48:29.214Z,96332.00
2022-07-30T04:52:32.847Z,96337.00
2022-07-30T04:56:37.732Z,96339.00
2022-07-30T05:00:44.323Z,96340.00
2022-07-30T05:04:48.894Z,96341.00
2022-07-30T05:08:52.368Z,96340.00
2022-07-30T05:12:55.512Z,96338.00
2022-07-30T05:17:00.496Z,96334.00
2022-07-30T05:21:03.928Z,96345.00
2022-07-30T05:25:16.152Z,96344.00
2022-07-30T05:29:20.391Z,96352.00
2022-07-30T05:33:38.778Z,96345.00
2022-07-30T05:37:45.633Z,96350.00
2022-07-30T05:41:48.812Z,96347.00
2022-07-30T05:45:52.698Z,96360.00
2022-07-30T05:50:01.477Z,96334.00
2022-07-30T05:54:07.733Z,96352.00
2022-07-30T05:58:11.263Z,96358.00
2022-07-30T06:02:14.427Z,96355.00
2022-07-30T06:06:22.862Z,96359.00
2022-07-30T06:10:26.826Z,96359.00
2022-07-30T06:14:30.090Z,96361.00
2022-07-30T06:18:33.587Z,96368.00
2022-07-30T06:22:38.483Z,96357.00
2022-07-30T06:26:41.759Z,96368.00
2022-07-30T06:30:46.180Z,96377.00
2022-07-30T06:34:55.139Z,96377.00
2022-07-30T06:39:04.923Z,96378.00
2022-07-30T06:43:08.095Z,96400.00
2022-07-30T06:47:11.801Z,96392.00
2022-07-30T06:51:15.418Z,96392.00
2022-07-30T06:55:20.705Z,96401.00
2022-07-30T06:59:23.986Z,96403.00
2022-07-30T07:03:40.134Z,96407.00
2022-07-30T07:07:52.462Z,96414.00
2022-07-30T07:12:03.270Z,96404.00
2022-07-30T07:16:10.716Z,96410.00
2022-07-30T07:20:13.916Z,96402.00
2022-07-30T07:24:17.283Z,96404.00
2022-07-30T07:28:21.948Z,96406.00
2022-07-30T07:32:37.257Z,96412.00
2022-07-30T07:36:40.488Z,96405.00
2022-07-30T07:40:43.643Z,96417.00
2022-07-30T07:44:48.278Z,96410.00
2022-07-30T07:48:51.560Z,96411.00
2022-07-30T07:52:54.795Z,96410.00
2022-07-30T07:56:59.393Z,96406.00
2022-07-30T08:01:07.127Z,96412.00
2022-07-30T08:05:12.620Z,96417.00
2022-07-30T08:09:15.922Z,96418.00
2022-07-30T08:13:51.854Z,96422.00
2022-07-30T08:17:45.037Z,96435.00
2022-07-30T08:21:48.280Z,96439.00
2022-07-30T08:25:51.695Z,96437.00
2022-07-30T08:29:56.658Z,96436.00
2022-07-30T08:34:03.214Z,96445.00
2022-07-30T08:38:06.438Z,96439.00
2022-07-30T08:42:09.977Z,96449.00
2022-07-30T08:46:15.190Z,96452.00
2022-07-30T08:50:20.268Z,96445.00
2022-07-30T08:54:23.898Z,96450.00
2022-07-30T08:58:30.651Z,96458.00
2022-07-30T09:02:34.380Z,96450.00
2022-07-30T09:06:40.956Z,96452.00
2022-07-30T09:10:53.054Z,96461.00
2022-07-30T09:15:04.426Z,96454.00
2022-07-30T09:19:16.438Z,96459.00
2022-07-30T09:23:21.271Z,96460.00
2022-07-30T09:27:24.566Z,96458.00
2022-07-30T09:35:36.475Z,96460.00
2022-07-30T09:39:42.982Z,96462.00
2022-07-30T09:44:05.010Z,96453.00
2022-07-30T09:48:22.813Z,96466.00
2022-07-30T09:52:30.248Z,96464.00
2022-07-30T09:56:35.226Z,96464.00
2022-07-30T10:00:42.318Z,96467.00
2022-07-30T10:04:45.912Z,96472.00
2022-07-30T10:08:52.670Z,96457.00
2022-07-30T10:13:00.924Z,96459.00
2022-07-30T10:17:05.303Z,96456.00
2022-07-30T10:21:09.798Z,96458.00
2022-07-30T10:25:16.362Z,96455.00
2022-07-30T10:29:22.290Z,96462.00
2022-07-30T10:33:40.414Z,96440.00
2022-07-30T10:37:47.835Z,96444.00
2022-07-30T10:42:03.290Z,96448.00
2022-07-30T10:47:06.585Z,96430.00
2022-07-30T10:51:46.730Z,96434.00
2022-07-30T10:56:25.550Z,96442.00
2022-07-30T11:01:00.044Z,96432.00
2022-07-30T11:05:45.147Z,96432.00
2022-07-30T11:10:35.474Z,96438.00
2022-07-30T11:15:06.856Z,96428.00
2022-07-30T11:19:55.865Z,96430.00
2022-07-30T11:24:34.422Z,96431.00
2022-07-30T11:29:33.539Z,96422.00
2022-07-30T11:33:37.032Z,96422.00
2022-07-30T11:38:18.861Z,96430.00
2022-07-30T11:42:50.324Z,96416.00
2022-07-30T11:47:29.009Z,96410.00
2022-07-30T11:51:41.726Z,96429.00
2022-07-30T11:55:47.815Z,96435.00
2022-07-30T11:59:58.182Z,96437.00
2022-07-30T12:09:28.855Z,96435.00
2022-07-30T12:13:59.625Z,96439.00
2022-07-30T12:18:26.675Z,96437.00
2022-07-30T12:22:51.690Z,96459.00
2022-07-30T12:27:29.976Z,96453.00
2022-07-30T12:32:03.811Z,96458.00
2022-07-30T12:36:40.561Z,96452.00
2022-07-30T12:40:57.689Z,96448.00
2022-07-30T12:45:02.295Z,96469.00
2022-07-30T12:49:36.534Z,96454.00
2022-07-30T12:54:13.373Z,96455.00
2022-07-30T12:58:17.995Z,96443.00
2022-07-30T13:02:33.954Z,96445.00
2022-07-30T13:07:05.265Z,96457.00
2022-07-30T13:11:39.086Z,96450.00
2022-07-30T13:16:16.140Z,96467.00
2022-07-30T13:20:54.428Z,96454.00
2022-07-30T13:25:38.851Z,96452.00
2022-07-30T13:30:05.806Z,96447.00
2022-07-30T13:34:42.859Z,96449.00
2022-07-30T13:39:21.246Z,96435.00
2022-07-30T13:43:55.570Z,96424.00
2022-07-30T13:48:33.030Z,96434.00
2022-07-30T13:52:36.190Z,96446.00
2022-07-30T13:57:13.568Z,96443.00
2022-07-30T14:01:52.686Z,96444.00
2022-07-30T14:06:26.523Z,96443.00
2022-07-30T14:11:04.292Z,96441.00
2022-07-30T14:15:41.013Z,96457.00
2022-07-30T14:20:20.501Z,96462.00
2022-07-30T14:24:57.851Z,96473.00
2022-07-30T14:29:34.804Z,96464.00
2022-07-30T14:34:11.541Z,96457.00
2022-07-30T14:38:16.104Z,96437.00
2022-07-30T14:42:50.093Z,96434.00
2022-07-30T14:47:27.162Z,96439.00
2022-07-30T14:51:52.622Z,96437.00
2022-07-30T14:56:30.707Z,96439.00
2022-07-30T15:01:14.964Z,96440.00
2022-07-30T15:10:37.883Z,96443.00
2022-07-30T15:15:14.644Z,96450.00
2022-07-30T15:19:50.992Z,96451.00
2022-07-30T15:24:26.254Z,96454.00
2022-07-30T15:29:00.904Z,96452.00
2022-07-30T15:33:43.077Z,96453.00
2022-07-30T15:37:46.153Z,96457.00
2022-07-30T15:42:22.675Z,96467.00
2022-07-30T15:47:00.016Z,96464.00
2022-07-30T15:51:06.030Z,96471.00
2022-07-30T15:55:46.877Z,96467.00
2022-07-30T16:00:15.578Z,96473.00
2022-07-30T16:04:51.865Z,96475.00
2022-07-30T16:09:31.515Z,96474.00
2022-07-30T16:13:34.604Z,96467.00
2022-07-30T16:17:37.888Z,96483.00
2022-07-30T16:22:14.999Z,96489.00
2022-07-30T16:26:51.534Z,96475.00
2022-07-30T16:31:28.566Z,96492.00
2022-07-30T16:36:05.542Z,96503.00
2022-07-30T16:40:42.427Z,96502.00
2022-07-30T16:45:21.011Z,96496.00
2022-07-30T16:49:54.643Z,96505.00
2022-07-30T16:54:32.235Z,96504.00
2022-07-30T16:59:08.541Z,96504.00
2022-07-30T17:03:43.852Z,96502.00
2022-07-30T17:07:47.427Z,96511.00
2022-07-30T17:12:25.272Z,96513.00
2022-07-30T17:16:29.081Z,96519.00
2022-07-30T17:20:34.233Z,96520.00
2022-07-30T17:24:37.426Z,96535.00
2022-07-30T17:29:15.090Z,96525.00
2022-07-30T17:33:18.336Z,96527.00
2022-07-30T17:37:56.811Z,96522.00
2022-07-30T17:42:03.040Z,96524.00
2022-07-30T17:46:37.052Z,96519.00
2022-07-30T17:51:14.113Z,96525.00
2022-07-30T17:55:57.314Z,96528.00
2022-07-30T18:00:28.944Z,96525.00
2022-07-30T18:04:32.011Z,96521.00
2022-07-30T18:08:35.388Z,96524.00
2022-07-30T18:13:26.496Z,96531.00
2022-07-30T18:17:32.892Z,96532.00
2022-07-30T18:21:36.289Z,96530.00
2022-07-30T18:25:51.819Z,96530.00
2022-07-30T18:29:56.810Z,96537.00
2022-07-30T18:34:01.374Z,96539.00
2022-07-30T18:38:35.322Z,96536.00
2022-07-30T18:43:13.251Z,96540.00
2022-07-30T18:47:18.274Z,96539.00
2022-07-30T18:51:25.349Z,96548.00
2022-07-30T18:56:02.156Z,96545.00
2022-07-30T19:00:42.810Z,96558.00
2022-07-30T19:04:52.805Z,96560.00
2022-07-30T19:09:00.238Z,96563.00
2022-07-30T19:13:33.740Z,96563.00
2022-07-30T19:17:45.209Z,96571.00
2022-07-30T19:22:11.171Z,96571.00
2022-07-30T19:26:16.861Z,96572.00
2022-07-30T19:30:50.702Z,96573.00
2022-07-30T19:34:54.823Z,96574.00
2022-07-30T19:39:28.542Z,96575.00
2022-07-30T19:43:33.547Z,96580.00
2022-07-30T19:48:09.549Z,96589.00
2022-07-30T19:57:07.511Z,96591.00
2022-07-30T20:01:14.505Z,96582.00
2022-07-30T20:05:54.970Z,96589.00
2022-07-30T20:10:21.101Z,96584.00
2022-07-30T20:14:55.791Z,96593.00
2022-07-30T20:19:00.326Z,96592.00
2022-07-30T20:23:06.326Z,96594.00
2022-07-30T20:27:43.299Z,96599.00
2022-07-30T20:31:46.434Z,96597.00
2022-07-30T20:36:25.079Z,96593.00
2022-07-30T20:40:58.835Z,96595.00
2022-07-30T20:45:40.612Z,96594.00
2022-07-30T20:50:14.442Z,96593.00
2022-07-30T20:54:50.080Z,96602.00
2022-07-30T20:58:53.226Z,96600.00
2022-07-30T21:02:58.698Z,96594.00
2022-07-30T21:07:06.556Z,96600.00
2022-07-30T21:11:12.683Z,96602.00
2022-07-30T21:15:23.617Z,96607.00
2022-07-30T21:19:51.780Z,96611.00
2022-07-30T21:23:54.889Z,96615.00
2022-07-30T21:27:59.334Z,96604.00
2022-07-30T21:32:03.596Z,96600.00
2022-07-30T21:36:10.112Z,96600.00
2022-07-30T21:44:39.902Z,96603.00
2022-07-30T21:49:14.054Z,96609.00
2022-07-30T21:53:51.534Z,96603.00
2022-07-30T21:57:54.963Z,96601.00
2022-07-30T22:02:31.555Z,96606.00
2022-07-30T22:07:08.350Z,96610.00
2022-07-30T22:11:45.358Z,96612.00
2022-07-30T22:15:50.303Z,96614.00
2022-07-30T22:20:29.029Z,96615.00
2022-07-30T22:24:32.135Z,96617.00
2022-07-30T22:29:08.911Z,96607.00
2022-07-30T22:33:15.053Z,96611.00
2022-07-30T22:37:50.639Z,96604.00
2022-07-30T22:41:53.758Z,96594.00
2022-07-30T22:46:31.855Z,96604.00
2022-07-30T22:51:11.865Z,96614.00
2022-07-30T22:55:45.538Z,96611.00
2022-07-30T23:00:27.192Z,96602.00
2022-07-30T23:04:31.698Z,96601.00
2022-07-30T23:08:36.104Z,96601.00
2022-07-30T23:12:15.295Z,96588.00
2022-07-30T23:12:27.581Z,96598.00
2022-07-30T23:12:39.930Z,96606.00
2022-07-30T23:17:15.702Z,96609.00
2022-07-30T23:21:18.879Z,96612.00
2022-07-30T23:25:53.019Z,96610.00
2022-07-30T23:29:56.132Z,96608.00
2022-07-30T23:34:15.003Z,96612.00
2022-07-30T23:38:48.848Z,96611.00
2022-07-30T23:43:25.780Z,96613.00
2022-07-30T23:48:00.549Z,96611.00
2022-07-30T23:52:06.480Z,96612.00
2022-07-30T23:56:15.298Z,96607.00
